Airport ICAO


07:28 UTC

10°C

Clear skies


An affordable passengers' Moving Map for your aircraft. Made for the iPad and the iPhone
More information here

EGMD Lydd


Lydd UNITED KINGDOM   VFR CAVOK


METAR EGMD 200720Z 00000KT CAVOK 10/10 Q1020 0h08min

TAF EGMD 200504Z 2006/2015 32005KT 5000 BR FEW045 TEMPO 2006/2009 0800 FG PROB30 TEMPO 2006/2009 0300 BKN001 BECMG 2007/2010 25010KT BECMG 2009/2011 9999 NSW PROB30 TEMPO 2009/2011 BKN010 2h24min





NOTAMS

OPEN